Danmark — OXDK — position and weather

sailwx.info

Track history (hours):
 
Tides and Currents Weather Stations Pressure Air Temp Water Temp Dewpoint Dewpoint Depression Visibility Wind Speed Wind Dir Waves Ship Positions

Danmark (Denmark)

Last reported at 2018-Jun-16 23:08 UTC. Time now 2018-Jun-22 01:34 UTC.
Position N 56°57' E 010°26'.

Length 60 m; beam 10 m; draft 5 m.

Type: Sailing vessel. MMSI: 219500000.

Date/timePositionNaut miles runAvg speedWind from/ knotsBaromVisibWave heightAir tempDewpointWater temp
2018-Jun-16 23:08N 56°57' E 010°26'2 4.8
2018-Jun-16 22:45N 56°58' E 010°23'1 5.0
2018-Jun-16 22:30N 56°58' E 010°21'2 4.8
2018-Jun-16 22:00N 56°59' E 010°17'2 4.4
2018-Jun-16 21:30N 56°59' E 010°13'3 5.4
2018-Jun-16 21:00N 57°01' E 010°09'3 5.8
2018-Jun-16 20:30N 57°03' E 010°05'3 5.6
2018-Jun-16 20:00N 57°05' E 010°01'2 4.9
2018-Jun-16 19:30N 57°03' E 009°58'1 1.9
2018-Jun-16 18:58N 57°03' E 009°56'0 0.0
2018-Jun-16 18:22N 57°03' E 009°56'0 0.0
2018-Jun-16 17:58N 57°03' E 009°56'0 0.0
2018-Jun-16 17:28N 57°03' E 009°56'0 0.0
2018-Jun-16 16:58N 57°03' E 009°56'0 0.0
2018-Jun-16 16:25N 57°03' E 009°56'0 0.0
2018-Jun-16 15:58N 57°03' E 009°56'0 0.0
2018-Jun-16 15:28N 57°03' E 009°56'0 0.0
2018-Jun-16 14:58N 57°03' E 009°56'0 0.0
2018-Jun-16 14:28N 57°03' E 009°56'0 0.0
2018-Jun-16 13:55N 57°03' E 009°56'0 0.0
2018-Jun-16 13:28N 57°03' E 009°56'0 0.0
2018-Jun-16 12:58N 57°03' E 009°56'0 0.0
2018-Jun-16 12:25N 57°03' E 009°56'0 0.0
2018-Jun-16 11:55N 57°03' E 009°56'0 0.0
2018-Jun-16 11:25N 57°03' E 009°56'0 0.0
2018-Jun-16 10:58N 57°03' E 009°56'0 0.0
2018-Jun-16 10:28N 57°03' E 009°56'0 0.0
2018-Jun-16 09:58N 57°03' E 009°56'0 0.0
2018-Jun-16 09:28N 57°03' E 009°56'0 0.0
2018-Jun-16 08:58N 57°03' E 009°56'0 0.0
2018-Jun-16 08:25N 57°03' E 009°56'0 0.0
2018-Jun-16 07:58N 57°03' E 009°56'0 0.0
2018-Jun-16 07:28N 57°03' E 009°56'0 0.0
2018-Jun-16 06:55N 57°03' E 009°56'0 0.0
2018-Jun-16 06:25N 57°03' E 009°56'0 0.0
2018-Jun-16 05:58N 57°03' E 009°56'0 0.0
2018-Jun-16 05:28N 57°03' E 009°56'0 0.0
2018-Jun-16 04:58N 57°03' E 009°56'0 0.0
2018-Jun-16 04:28N 57°03' E 009°56'0 0.0
2018-Jun-16 03:58N 57°03' E 009°56'0 0.0
2018-Jun-16 03:28N 57°03' E 009°56'0 0.0
2018-Jun-16 02:58N 57°03' E 009°56'0 0.0
2018-Jun-16 02:25N 57°03' E 009°56'0 0.1
2018-Jun-16 01:58N 57°03' E 009°56'0 0.1
2018-Jun-16 01:25N 57°03' E 009°56'0 0.0
2018-Jun-16 00:58N 57°03' E 009°56'0 0.0
2018-Jun-16 00:28N 57°03' E 009°56'0 0.0
2018-Jun-15 23:58N 57°03' E 009°56'0 0.0
2018-Jun-15 23:28N 57°03' E 009°56'0 0.0
2018-Jun-15 22:58N 57°03' E 009°56'0 0.0
2018-Jun-15 22:25N 57°03' E 009°56'0 0.0
2018-Jun-15 21:52N 57°03' E 009°56'0 0.0
2018-Jun-15 21:28N 57°03' E 009°56'0 0.0
2018-Jun-15 20:55N 57°03' E 009°56'0 0.0
2018-Jun-15 20:28N 57°03' E 009°56'0 0.0
2018-Jun-15 19:49N 57°03' E 009°56'0 0.0
2018-Jun-15 19:25N 57°03' E 009°56'0 0.0
2018-Jun-15 18:58N 57°03' E 009°56'0 0.0
2018-Jun-15 18:28N 57°03' E 009°56'0 0.0
2018-Jun-15 17:46N 57°03' E 009°56'0 0.0
2018-Jun-15 17:28N 57°03' E 009°56'0 0.0
2018-Jun-15 16:58N 57°03' E 009°56'0 0.0
2018-Jun-15 16:19N 57°03' E 009°56'0 0.0
2018-Jun-15 15:58N 57°03' E 009°56'0 0.0
2018-Jun-15 15:28N 57°03' E 009°56'0 0.0
2018-Jun-15 14:52N 57°03' E 009°56'0 0.0
2018-Jun-15 14:25N 57°03' E 009°56'0 0.0
2018-Jun-15 13:55N 57°03' E 009°56'0 0.0
2018-Jun-15 13:25N 57°03' E 009°56'0 0.0
2018-Jun-15 12:58N 57°03' E 009°56'0 0.0
2018-Jun-15 12:30N 57°03' E 009°56'1 2.7
2018-Jun-15 12:00N 57°04' E 009°58'2 3.4
2018-Jun-15 11:30N 57°05' E 009°60'3 5.1
2018-Jun-15 11:00N 57°03' E 010°03'3 5.8
2018-Jun-15 10:30N 57°02' E 010°08'3 5.7
2018-Jun-15 10:00N 56°60' E 010°11'3 5.1
2018-Jun-15 09:30N 56°59' E 010°16'82 6.1
2018-Jun-14 20:05N 56°13' E 012°19'2 6.4
2018-Jun-14 19:46N 56°13' E 012°23'2 5.7
2018-Jun-14 19:30N 56°13' E 012°25'2 4.8
2018-Jun-14 19:00N 56°11' E 012°28'3 5.4
2018-Jun-14 18:31N 56°08' E 012°30'4 8.2
2018-Jun-14 18:00N 56°05' E 012°35'4 7.9
2018-Jun-14 17:30N 56°02' E 012°40'4 7.7
2018-Jun-14 17:00N 55°59' E 012°42'4 7.3
2018-Jun-14 16:30N 55°55' E 012°44'4 7.9
2018-Jun-14 16:00N 55°51' E 012°44'4 7.9
2018-Jun-14 15:30N 55°47' E 012°42'4 7.0
2018-Jun-14 15:00N 55°44' E 012°40'3 5.4
2018-Jun-14 14:31N 55°42' E 012°36'1 2.0
2018-Jun-14 13:57N 55°41' E 012°36'0 0.0
2018-Jun-14 13:30N 55°41' E 012°36'0 0.0
2018-Jun-14 13:00N 55°41' E 012°36'0 0.0
2018-Jun-14 12:30N 55°41' E 012°36'0 0.0
2018-Jun-14 12:00N 55°41' E 012°36'0 0.0
2018-Jun-14 11:30N 55°41' E 012°36'0 0.0
2018-Jun-14 11:00N 55°41' E 012°36'0 0.0
2018-Jun-14 10:30N 55°41' E 012°36'0 0.0
2018-Jun-14 10:00N 55°41' E 012°36'0 0.0
2018-Jun-14 09:30N 55°41' E 012°36'0 0.0
2018-Jun-14 09:00N 55°41' E 012°36'0 0.0
2018-Jun-14 08:30N 55°41' E 012°36'0 0.0
2018-Jun-14 08:00N 55°41' E 012°36'0 0.0
2018-Jun-14 07:30N 55°41' E 012°36'0 0.0
2018-Jun-14 07:00N 55°41' E 012°36'0 0.0
2018-Jun-14 06:30N 55°41' E 012°36'0 0.0
2018-Jun-14 06:00N 55°41' E 012°36'0 0.0
2018-Jun-14 05:30N 55°41' E 012°36'0 0.0
2018-Jun-14 05:00N 55°41' E 012°36'0 0.0
2018-Jun-14 04:30N 55°41' E 012°36'0 0.0
2018-Jun-14 04:00N 55°41' E 012°36'0 0.0
2018-Jun-14 03:30N 55°41' E 012°36'0 0.0
2018-Jun-14 03:00N 55°41' E 012°36'0 0.0
2018-Jun-14 02:30N 55°41' E 012°36'0 0.0
2018-Jun-14 02:00N 55°41' E 012°36'0 0.0
2018-Jun-14 01:30N 55°41' E 012°36'0 0.0
2018-Jun-14 01:00N 55°41' E 012°36'0 0.0
2018-Jun-14 00:30N 55°41' E 012°36'0 0.0
2018-Jun-14 00:00N 55°41' E 012°36'0 0.0
2018-Jun-13 23:30N 55°41' E 012°36'0 0.0
2018-Jun-13 23:00N 55°41' E 012°36'0 0.0
2018-Jun-13 22:30N 55°41' E 012°36'0 0.0
2018-Jun-13 22:00N 55°41' E 012°36'0 0.0
2018-Jun-13 21:30N 55°41' E 012°36'0 0.0
2018-Jun-13 21:00N 55°41' E 012°36'0 0.0
2018-Jun-13 20:30N 55°41' E 012°36'0 0.0
2018-Jun-13 20:00N 55°41' E 012°36'0 0.0
2018-Jun-13 19:30N 55°41' E 012°36'0 0.0
2018-Jun-13 19:00N 55°41' E 012°36'0 0.0
2018-Jun-13 18:30N 55°41' E 012°36'0 0.0
2018-Jun-13 18:00N 55°41' E 012°36'0 0.0
2018-Jun-13 17:30N 55°41' E 012°36'0 0.0
2018-Jun-13 17:00N 55°41' E 012°36'0 0.0
2018-Jun-13 16:30N 55°41' E 012°36'0 0.0
2018-Jun-13 16:00N 55°41' E 012°36'0 0.0
2018-Jun-13 15:30N 55°41' E 012°36'0 0.0
2018-Jun-13 15:00N 55°41' E 012°36'0 0.0
2018-Jun-13 14:30N 55°41' E 012°36'0 0.0
2018-Jun-13 14:00N 55°41' E 012°36'0 0.0
2018-Jun-13 13:24N 55°41' E 012°36'0 0.0
2018-Jun-13 13:00N 55°41' E 012°36'0 0.0
2018-Jun-13 12:30N 55°41' E 012°36'0 0.0
2018-Jun-13 12:00N 55°41' E 012°36'0 0.0
2018-Jun-13 11:30N 55°41' E 012°36'0 0.0
2018-Jun-13 11:00N 55°41' E 012°36'0 0.0
2018-Jun-13 10:30N 55°41' E 012°36'0 0.0
2018-Jun-13 10:00N 55°41' E 012°36'0 0.0
2018-Jun-13 09:30N 55°41' E 012°36'0 0.0
2018-Jun-13 09:00N 55°41' E 012°36'0 0.0
2018-Jun-13 08:30N 55°41' E 012°36'0 0.0
2018-Jun-13 08:00N 55°41' E 012°36'0 0.0
2018-Jun-13 07:30N 55°41' E 012°36'0 0.0
2018-Jun-13 07:00N 55°41' E 012°36'0 0.0
2018-Jun-13 06:30N 55°41' E 012°36'0 0.0
2018-Jun-13 06:00N 55°41' E 012°36'0 0.0
2018-Jun-13 05:30N 55°41' E 012°36'0 0.0
2018-Jun-13 05:00N 55°41' E 012°36'0 0.0
2018-Jun-13 04:30N 55°41' E 012°36'0 0.0
2018-Jun-13 04:00N 55°41' E 012°36'0 0.0
2018-Jun-13 03:28N 55°41' E 012°36'0 0.0
2018-Jun-13 02:58N 55°41' E 012°36'0 0.0
2018-Jun-13 02:28N 55°41' E 012°36'0 0.0
2018-Jun-13 01:58N 55°41' E 012°36'0 0.0
2018-Jun-13 01:28N 55°41' E 012°36'0 0.0
2018-Jun-13 00:58N 55°41' E 012°36'0 0.0
2018-Jun-13 00:28N 55°41' E 012°36'0 0.0
2018-Jun-12 23:58N 55°41' E 012°36'0 0.0
2018-Jun-12 23:28N 55°41' E 012°36'0 0.0
2018-Jun-12 22:58N 55°41' E 012°36'0 0.0
2018-Jun-12 22:28N 55°41' E 012°36'0 0.0
2018-Jun-12 21:58N 55°41' E 012°36'0 0.0
2018-Jun-12 21:28N 55°41' E 012°36'0 0.0
2018-Jun-12 20:58N 55°41' E 012°36'0 0.0
2018-Jun-12 20:28N 55°41' E 012°36'0 0.0
2018-Jun-12 19:58N 55°41' E 012°36'0 0.0
2018-Jun-12 19:28N 55°41' E 012°36'0 0.0
2018-Jun-12 18:58N 55°41' E 012°36'0 0.0
2018-Jun-12 18:28N 55°41' E 012°36'0 0.0
2018-Jun-12 17:58N 55°41' E 012°36'0 0.0
2018-Jun-12 17:28N 55°41' E 012°36'0 0.0
2018-Jun-12 16:58N 55°41' E 012°36'0 0.0
2018-Jun-12 16:25N 55°41' E 012°36'0 0.0
2018-Jun-12 15:58N 55°41' E 012°36'0 0.0
2018-Jun-12 15:28N 55°41' E 012°36'0 0.0
2018-Jun-12 14:58N 55°41' E 012°36'0 0.0
2018-Jun-12 14:28N 55°41' E 012°36'0 0.0
2018-Jun-12 13:58N 55°41' E 012°36'0 0.4
2018-Jun-12 13:31N 55°41' E 012°36'2 3.2
2018-Jun-12 13:00N 55°43' E 012°37'3 5.1
2018-Jun-12 12:30N 55°45' E 012°40'2 4.8
2018-Jun-12 12:00N 55°47' E 012°41'2 3.9
2018-Jun-12 11:30N 55°49' E 012°40'2 4.5
2018-Jun-12 11:00N 55°51' E 012°38'1 2.8
2018-Jun-12 10:30N 55°52' E 012°36'1 1.6
2018-Jun-12 09:59N 55°51' E 012°35'0 0.0
2018-Jun-12 09:29N 55°51' E 012°35'0 0.0
2018-Jun-12 08:59N 55°51' E 012°35'0 0.0
2018-Jun-12 08:29N 55°51' E 012°35'0 0.0
2018-Jun-12 07:59N 55°51' E 012°35'0 0.1
2018-Jun-12 07:29N 55°51' E 012°35'0 0.0
2018-Jun-12 06:59N 55°51' E 012°35'0 0.0
2018-Jun-12 06:29N 55°51' E 012°35'0 0.0
2018-Jun-12 05:59N 55°51' E 012°35'0 0.0
2018-Jun-12 05:29N 55°51' E 012°35'0 0.0
2018-Jun-12 04:59N 55°51' E 012°35'0 0.0
2018-Jun-12 04:29N 55°51' E 012°35'0 0.0
2018-Jun-12 03:59N 55°51' E 012°35'0 0.0
2018-Jun-12 03:29N 55°51' E 012°35'0 0.0
2018-Jun-12 02:59N 55°51' E 012°35'0 0.0
2018-Jun-12 02:29N 55°51' E 012°35'0 0.0
2018-Jun-12 01:59N 55°51' E 012°35'0 0.0
2018-Jun-12 01:29N 55°51' E 012°35'0 0.0
2018-Jun-12 00:59N 55°51' E 012°35'0 0.0
2018-Jun-12 00:29N 55°51' E 012°35'0 0.0
2018-Jun-11 23:59N 55°51' E 012°35'0 0.0
2018-Jun-11 23:29N 55°51' E 012°35'0 0.0
2018-Jun-11 22:59N 55°51' E 012°35'0 0.0
2018-Jun-11 22:29N 55°51' E 012°35'0 0.0
2018-Jun-11 21:59N 55°51' E 012°35'0 0.0
2018-Jun-11 21:29N 55°51' E 012°35'0 0.0
2018-Jun-11 20:59N 55°51' E 012°35'0 0.0
2018-Jun-11 20:29N 55°51' E 012°35'0 0.0
2018-Jun-11 19:59N 55°51' E 012°35'0 0.0
2018-Jun-11 19:29N 55°51' E 012°35'0 0.0
2018-Jun-11 18:59N 55°51' E 012°35'0 0.0
2018-Jun-11 18:29N 55°51' E 012°35'0 0.0
2018-Jun-11 17:59N 55°51' E 012°35'0 0.0
2018-Jun-11 17:29N 55°51' E 012°35'0 0.0
2018-Jun-11 16:59N 55°51' E 012°35'0 0.0
2018-Jun-11 16:29N 55°51' E 012°35'0 0.0
2018-Jun-11 15:59N 55°51' E 012°35'0 0.0
2018-Jun-11 15:29N 55°51' E 012°35'0 0.0
2018-Jun-11 14:59N 55°51' E 012°35'0 0.0
2018-Jun-11 14:29N 55°51' E 012°35'0 0.0
2018-Jun-11 13:59N 55°51' E 012°35'0 0.0
2018-Jun-11 13:29N 55°51' E 012°35'0 0.0
2018-Jun-11 12:59N 55°51' E 012°35'0 0.0
2018-Jun-11 12:29N 55°51' E 012°35'0 0.0
2018-Jun-11 11:59N 55°51' E 012°35'0 0.0
2018-Jun-11 11:29N 55°51' E 012°35'0 0.0
2018-Jun-11 10:59N 55°51' E 012°35'0 0.0
2018-Jun-11 10:29N 55°51' E 012°35'0 0.0
2018-Jun-11 09:59N 55°51' E 012°35'0 0.0
2018-Jun-11 09:29N 55°51' E 012°35'0 0.0
2018-Jun-11 08:59N 55°51' E 012°35'1 2.5
2018-Jun-11 08:30N 55°52' E 012°35'2 4.4
2018-Jun-11 08:01N 55°54' E 012°35'3 5.5
2018-Jun-11 07:31N 55°57' E 012°34'2 3.6
2018-Jun-11 07:00N 55°59' E 012°34'0 0.0
2018-Jun-11 06:30N 55°59' E 012°34'0 0.0
2018-Jun-11 06:00N 55°59' E 012°34'0 0.0
2018-Jun-11 05:30N 55°59' E 012°34'0 0.0
2018-Jun-11 05:00N 55°59' E 012°34'0 0.0
2018-Jun-11 04:30N 55°59' E 012°34'0 0.0
2018-Jun-11 04:00N 55°59' E 012°34'0 0.0
2018-Jun-11 03:30N 55°59' E 012°34'0 0.0
2018-Jun-11 03:00N 55°59' E 012°34'0 0.1
2018-Jun-11 02:30N 55°59' E 012°34'0 0.0
2018-Jun-11 01:59N 55°59' E 012°34'0 0.0
2018-Jun-11 01:29N 55°59' E 012°34'0 0.0
2018-Jun-11 00:59N 55°59' E 012°34'0 0.0
2018-Jun-11 00:29N 55°59' E 012°34'0 0.0
2018-Jun-10 23:59N 55°59' E 012°34'0 0.0
2018-Jun-10 23:29N 55°59' E 012°34'0 0.0
2018-Jun-10 22:59N 55°59' E 012°34'0 0.0
2018-Jun-10 22:29N 55°59' E 012°34'0 0.0
2018-Jun-10 21:59N 55°59' E 012°34'0 0.0
2018-Jun-10 21:29N 55°59' E 012°34'1 2.0
2018-Jun-10 21:01N 55°59' E 012°36'3 6.9
2018-Jun-10 20:30N 56°02' E 012°38'4 7.3
2018-Jun-10 20:00N 56°05' E 012°34'4 7.2
2018-Jun-10 19:31N 56°07' E 012°29'19 5.3
2018-Jun-10 15:50N 56°19' E 012°01'4 5.6
2018-Jun-10 15:10N 56°22' E 011°60'1 7.0
2018-Jun-10 14:59N 56°24' E 011°59'3 5.5
2018-Jun-10 14:30N 56°26' E 011°58'17 7.1
2018-Jun-10 12:04N 56°43' E 011°51'2 5.6
2018-Jun-10 11:45N 56°45' E 011°51'3 4.6
2018-Jun-10 11:11N 56°46' E 011°46'1 6.5
2018-Jun-10 11:01N 56°46' E 011°44'3 5.8
2018-Jun-10 10:30N 56°45' E 011°39'3 4.9
2018-Jun-10 10:00N 56°45' E 011°35'1 1.6
2018-Jun-10 09:30N 56°44' E 011°34'0 0.2
2018-Jun-10 08:54N 56°44' E 011°34'0 0.0
2018-Jun-10 06:49N 56°44' E 011°34'0 0.0
2018-Jun-10 06:31N 56°44' E 011°34'0 0.0
2018-Jun-10 05:55N 56°44' E 011°34'0 0.1
2018-Jun-10 05:25N 56°44' E 011°34'0 0.0
2018-Jun-10 04:55N 56°44' E 011°34'0 0.0
2018-Jun-10 04:22N 56°44' E 011°34'0 0.0
2018-Jun-10 03:55N 56°44' E 011°34'0 0.0
2018-Jun-10 03:16N 56°44' E 011°34'0 0.0
2018-Jun-10 03:01N 56°44' E 011°34'0 0.0
2018-Jun-10 02:31N 56°44' E 011°34'0 0.0
2018-Jun-10 02:01N 56°44' E 011°34'0 0.1
2018-Jun-10 01:25N 56°44' E 011°34'0 0.0
2018-Jun-10 00:58N 56°44' E 011°34'1 0.1
2018-Jun-09 14:44N 56°45' E 011°34'1 4.9
2018-Jun-09 14:30N 56°46' E 011°32'3 5.9
2018-Jun-09 14:00N 56°48' E 011°28'3 6.1
2018-Jun-09 13:29N 56°48' E 011°23'3 6.0
2018-Jun-09 13:00N 56°47' E 011°17'3 6.1
2018-Jun-09 12:30N 56°46' E 011°13'3 5.3
2018-Jun-09 12:00N 56°44' E 011°09'3 5.5
2018-Jun-09 11:30N 56°42' E 011°06'3 6.3
2018-Jun-09 11:00N 56°39' E 011°05'3 6.4
2018-Jun-09 10:30N 56°36' E 011°04'3 6.7
2018-Jun-09 10:00N 56°32' E 011°03'3 6.6
2018-Jun-09 09:30N 56°29' E 011°02'3 6.1
2018-Jun-09 09:00N 56°26' E 010°60'1 2.6
2018-Jun-09 08:30N 56°25' E 010°59'1 2.4
2018-Jun-09 08:00N 56°24' E 010°59'1 2.2
2018-Jun-09 07:30N 56°23' E 010°58'1 1.9
2018-Jun-09 07:00N 56°22' E 010°57'1 1.0
2018-Jun-09 06:30N 56°21' E 010°58'0 0.0
2018-Jun-09 06:00N 56°21' E 010°58'0 0.0
2018-Jun-09 05:12N 56°21' E 010°58'0 0.0
2018-Jun-09 05:00N 56°21' E 010°58'0 0.0
2018-Jun-09 04:18N 56°21' E 010°58'0 0.0
2018-Jun-09 02:48N 56°21' E 010°58'0 0.0
2018-Jun-09 02:18N 56°21' E 010°58'0 0.0
2018-Jun-09 01:48N 56°21' E 010°58'0 0.0
2018-Jun-09 01:30N 56°21' E 010°58'0 0.0
2018-Jun-09 00:54N 56°21' E 010°58'0 0.0
2018-Jun-09 00:30N 56°21' E 010°58'0 0.0
2018-Jun-09 00:00N 56°21' E 010°58'1 0.2
2018-Jun-08 17:36N 56°22' E 010°59'16 4.0
2018-Jun-08 13:41N 56°34' E 010°39'1 5.6
2018-Jun-08 13:29N 56°34' E 010°37'3 5.4
2018-Jun-08 13:00N 56°35' E 010°33'3 5.4
2018-Jun-08 12:26N 56°38' E 010°30'3 6.0
2018-Jun-08 11:59N 56°41' E 010°30'3 5.6
2018-Jun-08 11:30N 56°43' E 010°26'3 5.2
2018-Jun-08 11:00N 56°43' E 010°22'19 3.0
2018-Jun-08 04:43N 56°38' E 009°48'0 0.0
2018-Jun-08 04:25N 56°38' E 009°48'0 0.0
2018-Jun-08 03:55N 56°38' E 009°48'0 0.0
2018-Jun-07 18:58N 56°38' E 009°48'0 0.0
2018-Jun-07 05:31N 56°38' E 009°48'0 0.0
2018-Jun-07 05:28N 56°38' E 009°48'0 0.0
2018-Jun-07 04:58N 56°38' E 009°48'0 0.0
2018-Jun-07 04:28N 56°38' E 009°48'0 0.0
2018-Jun-07 03:58N 56°38' E 009°48'0 0.0
2018-Jun-07 03:28N 56°38' E 009°48'0 0.0
2018-Jun-07 02:55N 56°38' E 009°48'0 0.3
2018-Jun-07 02:28N 56°38' E 009°48'0 0.1
2018-Jun-07 00:43N 56°38' E 009°48'0 0.0
2018-Jun-07 00:25N 56°38' E 009°48'  
Track history (hours):
 
Tides and Currents Weather Stations Pressure Air Temp Water Temp Dewpoint Dewpoint Depression Visibility Wind Speed Wind Dir Waves Ship Positions

Danmark (Denmark)

Last reported at 2018-Jun-16 23:08 UTC. Time now 2018-Jun-22 01:34 UTC.
Position N 56°57' E 010°26'.

Length 60 m; beam 10 m; draft 5 m.

Type: Sailing vessel. MMSI: 219500000.

Date/timePositionNaut miles runAvg speedWind from/ knotsBaromVisibWave heightAir tempDewpointWater temp
2018-Jun-16 23:08N 56°57' E 010°26'2 4.8
2018-Jun-16 22:45N 56°58' E 010°23'1 5.0
2018-Jun-16 22:30N 56°58' E 010°21'2 4.8
2018-Jun-16 22:00N 56°59' E 010°17'2 4.4
2018-Jun-16 21:30N 56°59' E 010°13'3 5.4
2018-Jun-16 21:00N 57°01' E 010°09'3 5.8
2018-Jun-16 20:30N 57°03' E 010°05'3 5.6
2018-Jun-16 20:00N 57°05' E 010°01'2 4.9
2018-Jun-16 19:30N 57°03' E 009°58'1 1.9
2018-Jun-16 18:58N 57°03' E 009°56'0 0.0
2018-Jun-16 18:22N 57°03' E 009°56'0 0.0
2018-Jun-16 17:58N 57°03' E 009°56'0 0.0
2018-Jun-16 17:28N 57°03' E 009°56'0 0.0
2018-Jun-16 16:58N 57°03' E 009°56'0 0.0
2018-Jun-16 16:25N 57°03' E 009°56'0 0.0
2018-Jun-16 15:58N 57°03' E 009°56'0 0.0
2018-Jun-16 15:28N 57°03' E 009°56'0 0.0
2018-Jun-16 14:58N 57°03' E 009°56'0 0.0
2018-Jun-16 14:28N 57°03' E 009°56'0 0.0
2018-Jun-16 13:55N 57°03' E 009°56'0 0.0
2018-Jun-16 13:28N 57°03' E 009°56'0 0.0
2018-Jun-16 12:58N 57°03' E 009°56'0 0.0
2018-Jun-16 12:25N 57°03' E 009°56'0 0.0
2018-Jun-16 11:55N 57°03' E 009°56'0 0.0
2018-Jun-16 11:25N 57°03' E 009°56'0 0.0
2018-Jun-16 10:58N 57°03' E 009°56'0 0.0
2018-Jun-16 10:28N 57°03' E 009°56'0 0.0
2018-Jun-16 09:58N 57°03' E 009°56'0 0.0
2018-Jun-16 09:28N 57°03' E 009°56'0 0.0
2018-Jun-16 08:58N 57°03' E 009°56'0 0.0
2018-Jun-16 08:25N 57°03' E 009°56'0 0.0
2018-Jun-16 07:58N 57°03' E 009°56'0 0.0
2018-Jun-16 07:28N 57°03' E 009°56'0 0.0
2018-Jun-16 06:55N 57°03' E 009°56'0 0.0
2018-Jun-16 06:25N 57°03' E 009°56'0 0.0
2018-Jun-16 05:58N 57°03' E 009°56'0 0.0
2018-Jun-16 05:28N 57°03' E 009°56'0 0.0
2018-Jun-16 04:58N 57°03' E 009°56'0 0.0
2018-Jun-16 04:28N 57°03' E 009°56'0 0.0
2018-Jun-16 03:58N 57°03' E 009°56'0 0.0
2018-Jun-16 03:28N 57°03' E 009°56'0 0.0
2018-Jun-16 02:58N 57°03' E 009°56'0 0.0
2018-Jun-16 02:25N 57°03' E 009°56'0 0.1
2018-Jun-16 01:58N 57°03' E 009°56'0 0.1
2018-Jun-16 01:25N 57°03' E 009°56'0 0.0
2018-Jun-16 00:58N 57°03' E 009°56'0 0.0
2018-Jun-16 00:28N 57°03' E 009°56'0 0.0
2018-Jun-15 23:58N 57°03' E 009°56'0 0.0
2018-Jun-15 23:28N 57°03' E 009°56'0 0.0
2018-Jun-15 22:58N 57°03' E 009°56'0 0.0
2018-Jun-15 22:25N 57°03' E 009°56'0 0.0
2018-Jun-15 21:52N 57°03' E 009°56'0 0.0
2018-Jun-15 21:28N 57°03' E 009°56'0 0.0
2018-Jun-15 20:55N 57°03' E 009°56'0 0.0
2018-Jun-15 20:28N 57°03' E 009°56'0 0.0
2018-Jun-15 19:49N 57°03' E 009°56'0 0.0
2018-Jun-15 19:25N 57°03' E 009°56'0 0.0
2018-Jun-15 18:58N 57°03' E 009°56'0 0.0
2018-Jun-15 18:28N 57°03' E 009°56'0 0.0
2018-Jun-15 17:46N 57°03' E 009°56'0 0.0
2018-Jun-15 17:28N 57°03' E 009°56'0 0.0
2018-Jun-15 16:58N 57°03' E 009°56'0 0.0
2018-Jun-15 16:19N 57°03' E 009°56'0 0.0
2018-Jun-15 15:58N 57°03' E 009°56'0 0.0
2018-Jun-15 15:28N 57°03' E 009°56'0 0.0
2018-Jun-15 14:52N 57°03' E 009°56'0 0.0
2018-Jun-15 14:25N 57°03' E 009°56'0 0.0
2018-Jun-15 13:55N 57°03' E 009°56'0 0.0
2018-Jun-15 13:25N 57°03' E 009°56'0 0.0
2018-Jun-15 12:58N 57°03' E 009°56'0 0.0
2018-Jun-15 12:30N 57°03' E 009°56'1 2.7
2018-Jun-15 12:00N 57°04' E 009°58'2 3.4
2018-Jun-15 11:30N 57°05' E 009°60'3 5.1
2018-Jun-15 11:00N 57°03' E 010°03'3 5.8
2018-Jun-15 10:30N 57°02' E 010°08'3 5.7
2018-Jun-15 10:00N 56°60' E 010°11'3 5.1
2018-Jun-15 09:30N 56°59' E 010°16'82 6.1
2018-Jun-14 20:05N 56°13' E 012°19'2 6.4
2018-Jun-14 19:46N 56°13' E 012°23'2 5.7
2018-Jun-14 19:30N 56°13' E 012°25'2 4.8
2018-Jun-14 19:00N 56°11' E 012°28'3 5.4
2018-Jun-14 18:31N 56°08' E 012°30'4 8.2
2018-Jun-14 18:00N 56°05' E 012°35'4 7.9
2018-Jun-14 17:30N 56°02' E 012°40'4 7.7
2018-Jun-14 17:00N 55°59' E 012°42'4 7.3
2018-Jun-14 16:30N 55°55' E 012°44'4 7.9
2018-Jun-14 16:00N 55°51' E 012°44'4 7.9
2018-Jun-14 15:30N 55°47' E 012°42'4 7.0
2018-Jun-14 15:00N 55°44' E 012°40'3 5.4
2018-Jun-14 14:31N 55°42' E 012°36'1 2.0
2018-Jun-14 13:57N 55°41' E 012°36'0 0.0
2018-Jun-14 13:30N 55°41' E 012°36'0 0.0
2018-Jun-14 13:00N 55°41' E 012°36'0 0.0
2018-Jun-14 12:30N 55°41' E 012°36'0 0.0
2018-Jun-14 12:00N 55°41' E 012°36'0 0.0
2018-Jun-14 11:30N 55°41' E 012°36'0 0.0
2018-Jun-14 11:00N 55°41' E 012°36'0 0.0
2018-Jun-14 10:30N 55°41' E 012°36'0 0.0
2018-Jun-14 10:00N 55°41' E 012°36'0 0.0
2018-Jun-14 09:30N 55°41' E 012°36'0 0.0
2018-Jun-14 09:00N 55°41' E 012°36'0 0.0
2018-Jun-14 08:30N 55°41' E 012°36'0 0.0
2018-Jun-14 08:00N 55°41' E 012°36'0 0.0
2018-Jun-14 07:30N 55°41' E 012°36'0 0.0
2018-Jun-14 07:00N 55°41' E 012°36'0 0.0
2018-Jun-14 06:30N 55°41' E 012°36'0 0.0
2018-Jun-14 06:00N 55°41' E 012°36'0 0.0
2018-Jun-14 05:30N 55°41' E 012°36'0 0.0
2018-Jun-14 05:00N 55°41' E 012°36'0 0.0
2018-Jun-14 04:30N 55°41' E 012°36'0 0.0
2018-Jun-14 04:00N 55°41' E 012°36'0 0.0
2018-Jun-14 03:30N 55°41' E 012°36'0 0.0
2018-Jun-14 03:00N 55°41' E 012°36'0 0.0
2018-Jun-14 02:30N 55°41' E 012°36'0 0.0
2018-Jun-14 02:00N 55°41' E 012°36'0 0.0
2018-Jun-14 01:30N 55°41' E 012°36'0 0.0
2018-Jun-14 01:00N 55°41' E 012°36'0 0.0
2018-Jun-14 00:30N 55°41' E 012°36'0 0.0
2018-Jun-14 00:00N 55°41' E 012°36'0 0.0
2018-Jun-13 23:30N 55°41' E 012°36'0 0.0
2018-Jun-13 23:00N 55°41' E 012°36'0 0.0
2018-Jun-13 22:30N 55°41' E 012°36'0 0.0
2018-Jun-13 22:00N 55°41' E 012°36'0 0.0
2018-Jun-13 21:30N 55°41' E 012°36'0 0.0
2018-Jun-13 21:00N 55°41' E 012°36'0 0.0
2018-Jun-13 20:30N 55°41' E 012°36'0 0.0
2018-Jun-13 20:00N 55°41' E 012°36'0 0.0
2018-Jun-13 19:30N 55°41' E 012°36'0 0.0
2018-Jun-13 19:00N 55°41' E 012°36'0 0.0
2018-Jun-13 18:30N 55°41' E 012°36'0 0.0
2018-Jun-13 18:00N 55°41' E 012°36'0 0.0
2018-Jun-13 17:30N 55°41' E 012°36'0 0.0
2018-Jun-13 17:00N 55°41' E 012°36'0 0.0
2018-Jun-13 16:30N 55°41' E 012°36'0 0.0
2018-Jun-13 16:00N 55°41' E 012°36'0 0.0
2018-Jun-13 15:30N 55°41' E 012°36'0 0.0
2018-Jun-13 15:00N 55°41' E 012°36'0 0.0
2018-Jun-13 14:30N 55°41' E 012°36'0 0.0
2018-Jun-13 14:00N 55°41' E 012°36'0 0.0
2018-Jun-13 13:24N 55°41' E 012°36'0 0.0
2018-Jun-13 13:00N 55°41' E 012°36'0 0.0
2018-Jun-13 12:30N 55°41' E 012°36'0 0.0
2018-Jun-13 12:00N 55°41' E 012°36'0 0.0
2018-Jun-13 11:30N 55°41' E 012°36'0 0.0
2018-Jun-13 11:00N 55°41' E 012°36'0 0.0
2018-Jun-13 10:30N 55°41' E 012°36'0 0.0
2018-Jun-13 10:00N 55°41' E 012°36'0 0.0
2018-Jun-13 09:30N 55°41' E 012°36'0 0.0
2018-Jun-13 09:00N 55°41' E 012°36'0 0.0
2018-Jun-13 08:30N 55°41' E 012°36'0 0.0
2018-Jun-13 08:00N 55°41' E 012°36'0 0.0
2018-Jun-13 07:30N 55°41' E 012°36'0 0.0
2018-Jun-13 07:00N 55°41' E 012°36'0 0.0
2018-Jun-13 06:30N 55°41' E 012°36'0 0.0
2018-Jun-13 06:00N 55°41' E 012°36'0 0.0
2018-Jun-13 05:30N 55°41' E 012°36'0 0.0
2018-Jun-13 05:00N 55°41' E 012°36'0 0.0
2018-Jun-13 04:30N 55°41' E 012°36'0 0.0
2018-Jun-13 04:00N 55°41' E 012°36'0 0.0
2018-Jun-13 03:28N 55°41' E 012°36'0 0.0
2018-Jun-13 02:58N 55°41' E 012°36'0 0.0
2018-Jun-13 02:28N 55°41' E 012°36'0 0.0
2018-Jun-13 01:58N 55°41' E 012°36'0 0.0
2018-Jun-13 01:28N 55°41' E 012°36'0 0.0
2018-Jun-13 00:58N 55°41' E 012°36'0 0.0
2018-Jun-13 00:28N 55°41' E 012°36'0 0.0
2018-Jun-12 23:58N 55°41' E 012°36'0 0.0
2018-Jun-12 23:28N 55°41' E 012°36'0 0.0
2018-Jun-12 22:58N 55°41' E 012°36'0 0.0
2018-Jun-12 22:28N 55°41' E 012°36'0 0.0
2018-Jun-12 21:58N 55°41' E 012°36'0 0.0
2018-Jun-12 21:28N 55°41' E 012°36'0 0.0
2018-Jun-12 20:58N 55°41' E 012°36'0 0.0
2018-Jun-12 20:28N 55°41' E 012°36'0 0.0
2018-Jun-12 19:58N 55°41' E 012°36'0 0.0
2018-Jun-12 19:28N 55°41' E 012°36'0 0.0
2018-Jun-12 18:58N 55°41' E 012°36'0 0.0
2018-Jun-12 18:28N 55°41' E 012°36'0 0.0
2018-Jun-12 17:58N 55°41' E 012°36'0 0.0
2018-Jun-12 17:28N 55°41' E 012°36'0 0.0
2018-Jun-12 16:58N 55°41' E 012°36'0 0.0
2018-Jun-12 16:25N 55°41' E 012°36'0 0.0
2018-Jun-12 15:58N 55°41' E 012°36'0 0.0
2018-Jun-12 15:28N 55°41' E 012°36'0 0.0
2018-Jun-12 14:58N 55°41' E 012°36'0 0.0
2018-Jun-12 14:28N 55°41' E 012°36'0 0.0
2018-Jun-12 13:58N 55°41' E 012°36'0 0.4
2018-Jun-12 13:31N 55°41' E 012°36'2 3.2
2018-Jun-12 13:00N 55°43' E 012°37'3 5.1
2018-Jun-12 12:30N 55°45' E 012°40'2 4.8
2018-Jun-12 12:00N 55°47' E 012°41'2 3.9
2018-Jun-12 11:30N 55°49' E 012°40'2 4.5
2018-Jun-12 11:00N 55°51' E 012°38'1 2.8
2018-Jun-12 10:30N 55°52' E 012°36'1 1.6
2018-Jun-12 09:59N 55°51' E 012°35'0 0.0
2018-Jun-12 09:29N 55°51' E 012°35'0 0.0
2018-Jun-12 08:59N 55°51' E 012°35'0 0.0
2018-Jun-12 08:29N 55°51' E 012°35'0 0.0
2018-Jun-12 07:59N 55°51' E 012°35'0 0.1
2018-Jun-12 07:29N 55°51' E 012°35'0 0.0
2018-Jun-12 06:59N 55°51' E 012°35'0 0.0
2018-Jun-12 06:29N 55°51' E 012°35'0 0.0
2018-Jun-12 05:59N 55°51' E 012°35'0 0.0
2018-Jun-12 05:29N 55°51' E 012°35'0 0.0
2018-Jun-12 04:59N 55°51' E 012°35'0 0.0
2018-Jun-12 04:29N 55°51' E 012°35'0 0.0
2018-Jun-12 03:59N 55°51' E 012°35'0 0.0
2018-Jun-12 03:29N 55°51' E 012°35'0 0.0
2018-Jun-12 02:59N 55°51' E 012°35'0 0.0
2018-Jun-12 02:29N 55°51' E 012°35'0 0.0
2018-Jun-12 01:59N 55°51' E 012°35'0 0.0
2018-Jun-12 01:29N 55°51' E 012°35'0 0.0
2018-Jun-12 00:59N 55°51' E 012°35'0 0.0
2018-Jun-12 00:29N 55°51' E 012°35'0 0.0
2018-Jun-11 23:59N 55°51' E 012°35'0 0.0
2018-Jun-11 23:29N 55°51' E 012°35'0 0.0
2018-Jun-11 22:59N 55°51' E 012°35'0 0.0
2018-Jun-11 22:29N 55°51' E 012°35'0 0.0
2018-Jun-11 21:59N 55°51' E 012°35'0 0.0
2018-Jun-11 21:29N 55°51' E 012°35'0 0.0
2018-Jun-11 20:59N 55°51' E 012°35'0 0.0
2018-Jun-11 20:29N 55°51' E 012°35'0 0.0
2018-Jun-11 19:59N 55°51' E 012°35'0 0.0
2018-Jun-11 19:29N 55°51' E 012°35'0 0.0
2018-Jun-11 18:59N 55°51' E 012°35'0 0.0
2018-Jun-11 18:29N 55°51' E 012°35'0 0.0
2018-Jun-11 17:59N 55°51' E 012°35'0 0.0
2018-Jun-11 17:29N 55°51' E 012°35'0 0.0
2018-Jun-11 16:59N 55°51' E 012°35'0 0.0
2018-Jun-11 16:29N 55°51' E 012°35'0 0.0
2018-Jun-11 15:59N 55°51' E 012°35'0 0.0
2018-Jun-11 15:29N 55°51' E 012°35'0 0.0
2018-Jun-11 14:59N 55°51' E 012°35'0 0.0
2018-Jun-11 14:29N 55°51' E 012°35'0 0.0
2018-Jun-11 13:59N 55°51' E 012°35'0 0.0
2018-Jun-11 13:29N 55°51' E 012°35'0 0.0
2018-Jun-11 12:59N 55°51' E 012°35'0 0.0
2018-Jun-11 12:29N 55°51' E 012°35'0 0.0
2018-Jun-11 11:59N 55°51' E 012°35'0 0.0
2018-Jun-11 11:29N 55°51' E 012°35'0 0.0
2018-Jun-11 10:59N 55°51' E 012°35'0 0.0
2018-Jun-11 10:29N 55°51' E 012°35'0 0.0
2018-Jun-11 09:59N 55°51' E 012°35'0 0.0
2018-Jun-11 09:29N 55°51' E 012°35'0 0.0
2018-Jun-11 08:59N 55°51' E 012°35'1 2.5
2018-Jun-11 08:30N 55°52' E 012°35'2 4.4
2018-Jun-11 08:01N 55°54' E 012°35'3 5.5
2018-Jun-11 07:31N 55°57' E 012°34'2 3.6
2018-Jun-11 07:00N 55°59' E 012°34'0 0.0
2018-Jun-11 06:30N 55°59' E 012°34'0 0.0
2018-Jun-11 06:00N 55°59' E 012°34'0 0.0
2018-Jun-11 05:30N 55°59' E 012°34'0 0.0
2018-Jun-11 05:00N 55°59' E 012°34'0 0.0
2018-Jun-11 04:30N 55°59' E 012°34'0 0.0
2018-Jun-11 04:00N 55°59' E 012°34'0 0.0
2018-Jun-11 03:30N 55°59' E 012°34'0 0.0
2018-Jun-11 03:00N 55°59' E 012°34'0 0.1
2018-Jun-11 02:30N 55°59' E 012°34'0 0.0
2018-Jun-11 01:59N 55°59' E 012°34'0 0.0
2018-Jun-11 01:29N 55°59' E 012°34'0 0.0
2018-Jun-11 00:59N 55°59' E 012°34'0 0.0
2018-Jun-11 00:29N 55°59' E 012°34'0 0.0
2018-Jun-10 23:59N 55°59' E 012°34'0 0.0
2018-Jun-10 23:29N 55°59' E 012°34'0 0.0
2018-Jun-10 22:59N 55°59' E 012°34'0 0.0
2018-Jun-10 22:29N 55°59' E 012°34'0 0.0
2018-Jun-10 21:59N 55°59' E 012°34'0 0.0
2018-Jun-10 21:29N 55°59' E 012°34'1 2.0
2018-Jun-10 21:01N 55°59' E 012°36'3 6.9
2018-Jun-10 20:30N 56°02' E 012°38'4 7.3
2018-Jun-10 20:00N 56°05' E 012°34'4 7.2
2018-Jun-10 19:31N 56°07' E 012°29'19 5.3
2018-Jun-10 15:50N 56°19' E 012°01'4 5.6
2018-Jun-10 15:10N 56°22' E 011°60'1 7.0
2018-Jun-10 14:59N 56°24' E 011°59'3 5.5
2018-Jun-10 14:30N 56°26' E 011°58'17 7.1
2018-Jun-10 12:04N 56°43' E 011°51'2 5.6
2018-Jun-10 11:45N 56°45' E 011°51'3 4.6
2018-Jun-10 11:11N 56°46' E 011°46'1 6.5
2018-Jun-10 11:01N 56°46' E 011°44'3 5.8
2018-Jun-10 10:30N 56°45' E 011°39'3 4.9
2018-Jun-10 10:00N 56°45' E 011°35'1 1.6
2018-Jun-10 09:30N 56°44' E 011°34'0 0.2
2018-Jun-10 08:54N 56°44' E 011°34'0 0.0
2018-Jun-10 06:49N 56°44' E 011°34'0 0.0
2018-Jun-10 06:31N 56°44' E 011°34'0 0.0
2018-Jun-10 05:55N 56°44' E 011°34'0 0.1
2018-Jun-10 05:25N 56°44' E 011°34'0 0.0
2018-Jun-10 04:55N 56°44' E 011°34'0 0.0
2018-Jun-10 04:22N 56°44' E 011°34'0 0.0
2018-Jun-10 03:55N 56°44' E 011°34'0 0.0
2018-Jun-10 03:16N 56°44' E 011°34'0 0.0
2018-Jun-10 03:01N 56°44' E 011°34'0 0.0
2018-Jun-10 02:31N 56°44' E 011°34'0 0.0
2018-Jun-10 02:01N 56°44' E 011°34'0 0.1
2018-Jun-10 01:25N 56°44' E 011°34'0 0.0
2018-Jun-10 00:58N 56°44' E 011°34'1 0.1
2018-Jun-09 14:44N 56°45' E 011°34'1 4.9
2018-Jun-09 14:30N 56°46' E 011°32'3 5.9
2018-Jun-09 14:00N 56°48' E 011°28'3 6.1
2018-Jun-09 13:29N 56°48' E 011°23'3 6.0
2018-Jun-09 13:00N 56°47' E 011°17'3 6.1
2018-Jun-09 12:30N 56°46' E 011°13'3 5.3
2018-Jun-09 12:00N 56°44' E 011°09'3 5.5
2018-Jun-09 11:30N 56°42' E 011°06'3 6.3
2018-Jun-09 11:00N 56°39' E 011°05'3 6.4
2018-Jun-09 10:30N 56°36' E 011°04'3 6.7
2018-Jun-09 10:00N 56°32' E 011°03'3 6.6
2018-Jun-09 09:30N 56°29' E 011°02'3 6.1
2018-Jun-09 09:00N 56°26' E 010°60'1 2.6
2018-Jun-09 08:30N 56°25' E 010°59'1 2.4
2018-Jun-09 08:00N 56°24' E 010°59'1 2.2
2018-Jun-09 07:30N 56°23' E 010°58'1 1.9
2018-Jun-09 07:00N 56°22' E 010°57'1 1.0
2018-Jun-09 06:30N 56°21' E 010°58'0 0.0
2018-Jun-09 06:00N 56°21' E 010°58'0 0.0
2018-Jun-09 05:12N 56°21' E 010°58'0 0.0
2018-Jun-09 05:00N 56°21' E 010°58'0 0.0
2018-Jun-09 04:18N 56°21' E 010°58'0 0.0
2018-Jun-09 02:48N 56°21' E 010°58'0 0.0
2018-Jun-09 02:18N 56°21' E 010°58'0 0.0
2018-Jun-09 01:48N 56°21' E 010°58'0 0.0
2018-Jun-09 01:30N 56°21' E 010°58'0 0.0
2018-Jun-09 00:54N 56°21' E 010°58'0 0.0
2018-Jun-09 00:30N 56°21' E 010°58'0 0.0
2018-Jun-09 00:00N 56°21' E 010°58'1 0.2
2018-Jun-08 17:36N 56°22' E 010°59'16 4.0
2018-Jun-08 13:41N 56°34' E 010°39'1 5.6
2018-Jun-08 13:29N 56°34' E 010°37'3 5.4
2018-Jun-08 13:00N 56°35' E 010°33'3 5.4
2018-Jun-08 12:26N 56°38' E 010°30'3 6.0
2018-Jun-08 11:59N 56°41' E 010°30'3 5.6
2018-Jun-08 11:30N 56°43' E 010°26'3 5.2
2018-Jun-08 11:00N 56°43' E 010°22'19 3.0
2018-Jun-08 04:43N 56°38' E 009°48'0 0.0
2018-Jun-08 04:25N 56°38' E 009°48'0 0.0
2018-Jun-08 03:55N 56°38' E 009°48'0 0.0
2018-Jun-07 18:58N 56°38' E 009°48'0 0.0
2018-Jun-07 05:31N 56°38' E 009°48'0 0.0
2018-Jun-07 05:28N 56°38' E 009°48'0 0.0
2018-Jun-07 04:58N 56°38' E 009°48'0 0.0
2018-Jun-07 04:28N 56°38' E 009°48'0 0.0
2018-Jun-07 03:58N 56°38' E 009°48'0 0.0
2018-Jun-07 03:28N 56°38' E 009°48'0 0.0
2018-Jun-07 02:55N 56°38' E 009°48'0 0.3
2018-Jun-07 02:28N 56°38' E 009°48'0 0.1
2018-Jun-07 00:43N 56°38' E 009°48'0 0.0
2018-Jun-07 00:25N 56°38' E 009°48'  

Dump ship's entire track history